Time;durP1;ratioP1;P1;durP2;ratioP2;P2;SDS_P1;SDS_P2;PMS_P1;PMS_P2;Temp;Humidity;BMP_temperature;BMP_pressure;BME280_temperature;BME280_humidity;BME280_pressure;Samples;Min_cycle;Max_cycle;Signal;HPM_P1;HPM_P2
2022/05/16 15:51:41;;;;;;;120.05;26.17;;;;;;;20.39;67.71;101727.53;5023438;28;20542;-58
2022/05/16 15:56:22;;;;;;;126.65;24.17;;;;;;;20.49;69.40;101726.56;5035997;27;20413;-57
2022/05/16 15:58:48;;;;;;;141.23;27.50;;;;;;;20.53;70.03;101735.25;5040637;28;20029;-57
2022/05/16 16:01:14;;;;;;;100.45;24.95;;;;;;;20.49;69.62;101734.66;5034640;28;20021;-57
2022/05/16 16:09:11;;;;;;;108.20;24.27;;;;;;;20.39;69.88;101743.75;5038389;28;20043;-57
2022/05/16 16:11:37;;;;;;;107.05;22.13;;;;;;;20.36;69.08;101739.50;5038073;28;20017;-57
2022/05/16 16:14:03;;;;;;;93.07;22.48;;;;;;;20.35;70.39;101737.78;5039790;28;20086;-57
2022/05/16 16:16:29;;;;;;;97.55;23.60;;;;;;;20.36;70.05;101741.34;5043071;28;20066;-57
2022/05/16 16:18:55;;;;;;;92.72;22.30;;;;;;;20.36;70.06;101747.63;5042800;28;20027;-57
2022/05/16 16:21:23;;;;;;;94.78;22.08;;;;;;;20.40;70.76;101745.50;5043572;28;20027;-57
2022/05/16 16:23:48;;;;;;;82.20;20.70;;;;;;;20.40;69.72;101743.63;5043683;28;20024;-57
2022/05/16 16:26:14;;;;;;;84.38;21.73;;;;;;;20.45;70.27;101748.63;5043138;28;20025;-57
2022/05/16 16:28:40;;;;;;;90.38;21.48;;;;;;;20.47;69.95;101757.47;5043455;28;20365;-57
2022/05/16 16:31:10;;;;;;;89.25;21.20;;;;;;;20.45;69.72;101751.34;5040843;28;20021;-57
2022/05/16 16:33:37;;;;;;;92.18;21.70;;;;;;;20.43;69.27;101750.63;5042778;28;20013;-57
2022/05/16 16:36:03;;;;;;;85.85;20.63;;;;;;;20.42;69.45;101752.47;5043356;28;20044;-57
2022/05/16 16:38:28;;;;;;;70.32;19.95;;;;;;;20.42;68.84;101746.19;5041762;28;20534;-57
2022/05/16 16:40:58;;;;;;;81.65;20.13;;;;;;;20.44;68.92;101746.91;5043319;28;20091;-57
2022/05/16 16:43:39;;;;;;;81.47;19.77;;;;;;;20.46;68.84;101750.34;5041246;28;20098;-57
2022/05/16 16:46:09;;;;;;;83.50;19.52;;;;;;;20.46;69.12;101747.63;5043035;28;20042;-57
2022/05/16 16:48:35;;;;;;;74.72;18.85;;;;;;;20.47;68.73;101747.50;5041756;28;20086;-57
2022/05/16 16:51:01;;;;;;;65.32;18.67;;;;;;;20.49;68.47;101748.19;5042373;28;20017;-57
2022/05/16 16:58:59;;;;;;;58.53;17.95;;;;;;;20.55;68.32;101744.06;5044771;28;20105;-57
2022/05/16 17:01:26;;;;;;;63.42;17.80;;;;;;;20.57;67.63;101747.50;5046093;28;20037;-57
2022/05/16 17:03:54;;;;;;;64.93;17.15;;;;;;;20.60;67.72;101741.84;5045328;28;20020;-57
2022/05/16 17:06:20;;;;;;;54.45;16.33;;;;;;;20.61;67.24;101748.09;5039483;28;20020;-57
2022/05/16 17:08:46;;;;;;;65.80;17.10;;;;;;;20.61;67.69;101751.66;5033341;28;20033;-57
2022/05/16 17:11:13;;;;;;;52.25;16.80;;;;;;;20.59;67.39;101759.03;5031336;28;20055;-57
2022/05/16 17:13:40;;;;;;;60.05;16.77;;;;;;;20.57;66.66;101763.72;5029707;28;20028;-57
2022/05/16 17:16:09;;;;;;;59.13;15.48;;;;;;;20.55;66.97;101754.91;5023388;28;20013;-56
2022/05/16 17:18:35;;;;;;;64.32;15.88;;;;;;;20.52;67.02;101768.69;5026202;28;20045;-56
2022/05/16 17:21:02;;;;;;;52.95;14.68;;;;;;;20.47;67.26;101774.53;5030357;28;20021;-57
2022/05/16 17:23:29;;;;;;;57.13;14.30;;;;;;;20.45;66.94;101773.81;5027336;28;20032;-57
2022/05/16 17:25:55;;;;;;;47.70;14.60;;;;;;;20.41;66.79;101776.94;5030509;28;20052;-56
2022/05/16 17:28:24;;;;;;;68.13;15.00;;;;;;;20.37;66.86;101772.81;5030601;28;20447;-56
2022/05/16 17:30:53;;;;;;;55.22;14.57;;;;;;;20.35;66.95;101774.78;5028234;28;20412;-56
2022/05/16 17:33:19;;;;;;;44.97;13.98;;;;;;;20.33;66.63;101777.63;5031221;28;20013;-56
2022/05/16 17:35:44;;;;;;;53.05;13.18;;;;;;;20.35;66.79;101782.91;5028431;28;20420;-56
2022/05/16 17:38:10;;;;;;;51.03;13.77;;;;;;;20.41;66.47;101790.47;5025393;28;20135;-56
2022/05/16 17:40:36;;;;;;;50.22;13.68;;;;;;;20.43;65.87;101785.78;5029727;28;20354;-58
2022/05/16 17:43:04;;;;;;;43.78;12.63;;;;;;;20.40;66.06;101792.31;5031244;28;20016;-56
2022/05/16 17:45:30;;;;;;;43.75;12.25;;;;;;;20.38;65.97;101791.59;5026873;28;20516;-56
2022/05/16 17:47:56;;;;;;;46.00;12.48;;;;;;;20.34;66.15;101790.19;5030893;28;20057;-56
2022/05/16 17:50:21;;;;;;;36.47;11.55;;;;;;;20.30;66.22;101795.00;5025686;28;20017;-56
2022/05/16 17:52:47;;;;;;;47.67;12.23;;;;;;;20.28;66.25;101791.59;5022047;28;20013;-56
2022/05/16 17:55:14;;;;;;;50.50;12.40;;;;;;;20.26;66.24;101793.56;5028070;28;20048;-56
2022/05/16 17:57:41;;;;;;;43.20;11.77;;;;;;;20.25;66.87;101796.41;5025830;28;20021;-56
2022/05/16 18:00:08;;;;;;;40.65;11.88;;;;;;;20.23;66.32;101793.84;5026936;28;20020;-56
2022/05/16 18:02:37;;;;;;;39.08;12.25;;;;;;;20.22;67.65;101794.84;5026436;28;20443;-56
2022/05/16 18:05:04;;;;;;;40.20;11.68;;;;;;;20.19;66.45;101797.81;5030659;28;20098;-56
2022/05/16 18:07:31;;;;;;;45.80;12.15;;;;;;;20.17;66.53;101797.09;5031367;28;20036;-56
2022/05/16 18:09:56;;;;;;;34.42;10.85;;;;;;;20.17;66.70;101791.69;5029763;28;20068;-56
2022/05/16 18:15:09;;;;;;;35.65;10.27;;;;;;;20.16;66.74;101800.78;5031632;28;20032;-56
2022/05/16 18:17:34;;;;;;;39.75;11.63;;;;;;;20.14;66.76;101810.03;5025843;28;20013;-56
2022/05/16 18:19:59;;;;;;;39.83;11.63;;;;;;;20.13;66.79;101817.31;5029744;28;20035;-56
2022/05/16 18:22:28;;;;;;;34.85;10.98;;;;;;;20.13;66.19;101819.16;5029213;28;20032;-56
2022/05/16 18:24:53;;;;;;;31.67;10.55;;;;;;;20.12;66.75;101821.00;5030303;28;20063;-56
2022/05/16 18:27:19;;;;;;;36.60;10.35;;;;;;;20.11;66.45;101822.00;5031534;28;20040;-56
2022/05/16 18:29:44;;;;;;;31.25;10.63;;;;;;;20.10;66.29;101825.69;5028875;28;20481;-56
2022/05/16 18:32:15;;;;;;;30.83;10.15;;;;;;;20.09;66.42;101827.53;5029685;28;20048;-56
2022/05/16 18:34:40;;;;;;;25.92;9.00;;;;;;;20.09;66.29;101829.38;5028689;28;20382;-56
2022/05/16 18:37:05;;;;;;;28.85;9.32;;;;;;;20.09;66.06;101829.38;5029951;28;20116;-56
2022/05/16 18:39:31;;;;;;;33.53;9.20;;;;;;;20.08;66.20;101830.38;5025868;28;20028;-56
2022/05/16 18:52:55;;;;;;;27.58;10.00;;;;;;;20.04;66.04;101840.59;5030343;28;20052;-56
2022/05/16 18:55:21;;;;;;;38.65;9.40;;;;;;;20.04;65.79;101843.28;5029775;28;20583;-56
2022/05/16 18:57:47;;;;;;;28.88;9.13;;;;;;;20.04;65.32;101847.84;5027972;28;20037;-56
2022/05/16 19:00:15;;;;;;;29.20;8.43;;;;;;;20.02;65.37;101860.66;5029768;28;20036;-56
2022/05/16 19:02:42;;;;;;;32.63;8.60;;;;;;;20.02;65.24;101857.94;5029838;28;20354;-56
2022/05/16 19:05:10;;;;;;;29.05;9.63;;;;;;;20.02;65.25;101866.06;5029091;28;20031;-56
